sensor_id;sensor_type;location;lat;lon;timestamp;temperature;humidity
70708;SHT30;58277;47.316;18.908;2023-05-29T00:00:54;16.22;61.98
70708;SHT30;58277;47.316;18.908;2023-05-29T00:03:17;16.18;62.10
70708;SHT30;58277;47.316;18.908;2023-05-29T00:05:41;16.12;62.43
70708;SHT30;58277;47.316;18.908;2023-05-29T00:08:04;16.18;62.71
70708;SHT30;58277;47.316;18.908;2023-05-29T00:10:27;16.22;62.73
70708;SHT30;58277;47.316;18.908;2023-05-29T00:12:49;16.24;62.88
70708;SHT30;58277;47.316;18.908;2023-05-29T00:15:13;16.22;62.91
70708;SHT30;58277;47.316;18.908;2023-05-29T00:17:36;16.18;62.81
70708;SHT30;58277;47.316;18.908;2023-05-29T00:19:59;16.07;62.61
70708;SHT30;58277;47.316;18.908;2023-05-29T00:22:24;16.10;62.40
70708;SHT30;58277;47.316;18.908;2023-05-29T00:24:46;16.14;62.37
70708;SHT30;58277;47.316;18.908;2023-05-29T00:27:09;16.14;62.21
70708;SHT30;58277;47.316;18.908;2023-05-29T00:29:32;16.18;62.23
70708;SHT30;58277;47.316;18.908;2023-05-29T00:31:57;15.52;66.46
70708;SHT30;58277;47.316;18.908;2023-05-29T00:34:20;15.69;62.96
70708;SHT30;58277;47.316;18.908;2023-05-29T00:36:46;15.53;63.30
70708;SHT30;58277;47.316;18.908;2023-05-29T00:39:10;15.63;63.94
70708;SHT30;58277;47.316;18.908;2023-05-29T00:41:33;15.67;63.11
70708;SHT30;58277;47.316;18.908;2023-05-29T00:43:55;15.81;63.03
70708;SHT30;58277;47.316;18.908;2023-05-29T00:46:18;15.86;62.32
70708;SHT30;58277;47.316;18.908;2023-05-29T00:48:43;15.96;62.08
70708;SHT30;58277;47.316;18.908;2023-05-29T00:51:06;16.04;61.85
70708;SHT30;58277;47.316;18.908;2023-05-29T00:53:29;16.10;60.74
70708;SHT30;58277;47.316;18.908;2023-05-29T00:55:52;16.17;60.82
70708;SHT30;58277;47.316;18.908;2023-05-29T00:58:15;16.14;60.94
70708;SHT30;58277;47.316;18.908;2023-05-29T01:00:38;16.21;61.23
70708;SHT30;58277;47.316;18.908;2023-05-29T01:03:03;16.24;60.81
70708;SHT30;58277;47.316;18.908;2023-05-29T01:05:27;16.24;60.81
70708;SHT30;58277;47.316;18.908;2023-05-29T01:07:50;16.18;61.04
70708;SHT30;58277;47.316;18.908;2023-05-29T01:10:13;16.26;61.03
70708;SHT30;58277;47.316;18.908;2023-05-29T01:15:37;16.28;60.80
70708;SHT30;58277;47.316;18.908;2023-05-29T01:18:20;16.28;61.31
70708;SHT30;58277;47.316;18.908;2023-05-29T01:24:08;16.29;60.98
70708;SHT30;58277;47.316;18.908;2023-05-29T01:26:58;16.22;60.47
70708;SHT30;58277;47.316;18.908;2023-05-29T01:29:26;16.24;60.65
70708;SHT30;58277;47.316;18.908;2023-05-29T01:31:51;16.25;60.23
70708;SHT30;58277;47.316;18.908;2023-05-29T01:34:15;16.25;59.72
70708;SHT30;58277;47.316;18.908;2023-05-29T01:36:38;16.29;59.78
70708;SHT30;58277;47.316;18.908;2023-05-29T01:39:02;16.24;59.98
70708;SHT30;58277;47.316;18.908;2023-05-29T01:41:27;16.12;60.62
70708;SHT30;58277;47.316;18.908;2023-05-29T01:43:51;16.15;60.80
70708;SHT30;58277;47.316;18.908;2023-05-29T01:46:16;16.15;60.71
70708;SHT30;58277;47.316;18.908;2023-05-29T01:48:40;16.17;60.72
70708;SHT30;58277;47.316;18.908;2023-05-29T01:51:03;16.11;60.56
70708;SHT30;58277;47.316;18.908;2023-05-29T01:53:26;16.04;60.44
70708;SHT30;58277;47.316;18.908;2023-05-29T01:56:10;16.04;60.42
70708;SHT30;58277;47.316;18.908;2023-05-29T01:58:34;16.02;60.81
70708;SHT30;58277;47.316;18.908;2023-05-29T02:00:57;15.84;61.07
70708;SHT30;58277;47.316;18.908;2023-05-29T02:03:20;15.83;61.60
70708;SHT30;58277;47.316;18.908;2023-05-29T02:05:43;15.73;61.91
70708;SHT30;58277;47.316;18.908;2023-05-29T02:08:06;15.71;62.23
70708;SHT30;58277;47.316;18.908;2023-05-29T02:10:28;15.83;61.76
70708;SHT30;58277;47.316;18.908;2023-05-29T02:12:52;15.93;61.68
70708;SHT30;58277;47.316;18.908;2023-05-29T02:15:15;15.89;61.73
70708;SHT30;58277;47.316;18.908;2023-05-29T02:17:38;15.93;61.47
70708;SHT30;58277;47.316;18.908;2023-05-29T02:20:02;15.90;61.67
70708;SHT30;58277;47.316;18.908;2023-05-29T02:22:26;15.77;62.30
70708;SHT30;58277;47.316;18.908;2023-05-29T02:24:49;15.81;62.07
70708;SHT30;58277;47.316;18.908;2023-05-29T02:27:12;15.87;62.03
70708;SHT30;58277;47.316;18.908;2023-05-29T02:29:36;15.83;62.41
70708;SHT30;58277;47.316;18.908;2023-05-29T02:31:59;15.89;62.01
70708;SHT30;58277;47.316;18.908;2023-05-29T02:34:22;15.90;62.08
70708;SHT30;58277;47.316;18.908;2023-05-29T02:36:45;15.87;62.11
70708;SHT30;58277;47.316;18.908;2023-05-29T02:39:07;15.97;61.92
70708;SHT30;58277;47.316;18.908;2023-05-29T02:41:30;15.96;61.87
70708;SHT30;58277;47.316;18.908;2023-05-29T02:43:53;15.98;61.65
70708;SHT30;58277;47.316;18.908;2023-05-29T02:46:36;15.93;61.37
70708;SHT30;58277;47.316;18.908;2023-05-29T02:49:20;15.93;61.86
70708;SHT30;58277;47.316;18.908;2023-05-29T02:51:42;15.91;61.81
70708;SHT30;58277;47.316;18.908;2023-05-29T02:54:05;15.94;62.17
70708;SHT30;58277;47.316;18.908;2023-05-29T02:56:28;15.96;62.34
70708;SHT30;58277;47.316;18.908;2023-05-29T02:58:51;16.00;62.21
70708;SHT30;58277;47.316;18.908;2023-05-29T03:01:13;15.96;62.66
70708;SHT30;58277;47.316;18.908;2023-05-29T03:03:36;15.96;62.69
70708;SHT30;58277;47.316;18.908;2023-05-29T03:06:00;15.96;62.63
70708;SHT30;58277;47.316;18.908;2023-05-29T03:08:25;16.01;62.60
70708;SHT30;58277;47.316;18.908;2023-05-29T03:10:48;16.17;61.89
70708;SHT30;58277;47.316;18.908;2023-05-29T03:13:11;16.17;61.94
70708;SHT30;58277;47.316;18.908;2023-05-29T03:15:41;16.11;62.40
70708;SHT30;58277;47.316;18.908;2023-05-29T03:18:04;16.12;62.69
70708;SHT30;58277;47.316;18.908;2023-05-29T03:20:28;16.17;62.91
70708;SHT30;58277;47.316;18.908;2023-05-29T03:22:53;16.18;63.14
70708;SHT30;58277;47.316;18.908;2023-05-29T03:25:16;16.17;63.58
70708;SHT30;58277;47.316;18.908;2023-05-29T03:27:39;16.26;63.33
70708;SHT30;58277;47.316;18.908;2023-05-29T03:30:07;16.22;63.88
70708;SHT30;58277;47.316;18.908;2023-05-29T03:32:30;16.35;63.52
70708;SHT30;58277;47.316;18.908;2023-05-29T03:34:53;16.45;63.46
70708;SHT30;58277;47.316;18.908;2023-05-29T03:37:17;16.60;63.40
70708;SHT30;58277;47.316;18.908;2023-05-29T03:39:39;16.65;63.40
70708;SHT30;58277;47.316;18.908;2023-05-29T03:42:03;16.76;63.31
70708;SHT30;58277;47.316;18.908;2023-05-29T03:44:26;16.76;63.50
70708;SHT30;58277;47.316;18.908;2023-05-29T03:46:50;16.81;63.14
70708;SHT30;58277;47.316;18.908;2023-05-29T03:49:13;17.03;63.23
70708;SHT30;58277;47.316;18.908;2023-05-29T03:51:37;17.07;63.25
70708;SHT30;58277;47.316;18.908;2023-05-29T03:54:00;17.23;63.38
70708;SHT30;58277;47.316;18.908;2023-05-29T03:56:23;17.17;62.76
70708;SHT30;58277;47.316;18.908;2023-05-29T03:58:46;17.32;62.19
70708;SHT30;58277;47.316;18.908;2023-05-29T04:01:09;17.28;62.90
70708;SHT30;58277;47.316;18.908;2023-05-29T04:03:32;17.30;62.43
70708;SHT30;58277;47.316;18.908;2023-05-29T04:05:55;17.42;62.44
70708;SHT30;58277;47.316;18.908;2023-05-29T04:08:18;17.53;61.99
70708;SHT30;58277;47.316;18.908;2023-05-29T04:10:41;17.66;61.68
70708;SHT30;58277;47.316;18.908;2023-05-29T04:13:04;17.87;61.44
70708;SHT30;58277;47.316;18.908;2023-05-29T04:15:27;17.91;61.79
70708;SHT30;58277;47.316;18.908;2023-05-29T04:17:50;18.06;61.24
70708;SHT30;58277;47.316;18.908;2023-05-29T04:20:13;18.20;60.35
70708;SHT30;58277;47.316;18.908;2023-05-29T04:22:37;18.31;60.55
70708;SHT30;58277;47.316;18.908;2023-05-29T04:25:00;18.38;60.93
70708;SHT30;58277;47.316;18.908;2023-05-29T04:27:23;18.64;59.62
70708;SHT30;58277;47.316;18.908;2023-05-29T04:29:47;18.73;58.28
70708;SHT30;58277;47.316;18.908;2023-05-29T04:32:10;18.89;58.88
70708;SHT30;58277;47.316;18.908;2023-05-29T04:34:34;19.00;58.22
70708;SHT30;58277;47.316;18.908;2023-05-29T04:36:57;18.92;57.88
70708;SHT30;58277;47.316;18.908;2023-05-29T04:39:20;18.93;58.10
70708;SHT30;58277;47.316;18.908;2023-05-29T04:41:44;18.86;59.20
70708;SHT30;58277;47.316;18.908;2023-05-29T04:44:11;19.07;59.15
70708;SHT30;58277;47.316;18.908;2023-05-29T04:46:39;19.23;58.68
70708;SHT30;58277;47.316;18.908;2023-05-29T04:49:02;19.37;58.70
70708;SHT30;58277;47.316;18.908;2023-05-29T04:51:25;19.27;58.24
70708;SHT30;58277;47.316;18.908;2023-05-29T04:53:51;19.37;58.39
70708;SHT30;58277;47.316;18.908;2023-05-29T04:56:16;19.14;58.04
70708;SHT30;58277;47.316;18.908;2023-05-29T04:58:40;19.54;57.26
70708;SHT30;58277;47.316;18.908;2023-05-29T05:01:04;19.54;56.96
70708;SHT30;58277;47.316;18.908;2023-05-29T05:03:29;19.50;57.33
70708;SHT30;58277;47.316;18.908;2023-05-29T05:05:53;19.54;56.85
70708;SHT30;58277;47.316;18.908;2023-05-29T05:08:16;19.85;56.65
70708;SHT30;58277;47.316;18.908;2023-05-29T05:10:39;19.83;56.73
70708;SHT30;58277;47.316;18.908;2023-05-29T05:13:02;19.74;57.09
70708;SHT30;58277;47.316;18.908;2023-05-29T05:15:26;20.04;55.74
70708;SHT30;58277;47.316;18.908;2023-05-29T05:17:48;20.25;55.17
70708;SHT30;58277;47.316;18.908;2023-05-29T05:20:12;20.15;56.05
70708;SHT30;58277;47.316;18.908;2023-05-29T05:22:35;20.10;56.44
70708;SHT30;58277;47.316;18.908;2023-05-29T05:25:00;20.34;55.79
70708;SHT30;58277;47.316;18.908;2023-05-29T05:27:23;20.60;57.15
70708;SHT30;58277;47.316;18.908;2023-05-29T05:29:46;20.60;56.94
70708;SHT30;58277;47.316;18.908;2023-05-29T05:32:09;20.85;55.45
70708;SHT30;58277;47.316;18.908;2023-05-29T05:34:32;20.92;55.75
70708;SHT30;58277;47.316;18.908;2023-05-29T05:36:54;21.05;53.71
70708;SHT30;58277;47.316;18.908;2023-05-29T05:39:18;21.05;53.25
70708;SHT30;58277;47.316;18.908;2023-05-29T05:41:42;21.13;54.39
70708;SHT30;58277;47.316;18.908;2023-05-29T05:44:06;21.30;53.67
70708;SHT30;58277;47.316;18.908;2023-05-29T05:46:35;21.42;52.16
70708;SHT30;58277;47.316;18.908;2023-05-29T05:48:58;21.56;53.25
70708;SHT30;58277;47.316;18.908;2023-05-29T05:51:24;21.80;51.68
70708;SHT30;58277;47.316;18.908;2023-05-29T05:53:47;21.74;52.68
70708;SHT30;58277;47.316;18.908;2023-05-29T05:56:10;21.78;52.79
70708;SHT30;58277;47.316;18.908;2023-05-29T05:58:32;21.73;51.52
70708;SHT30;58277;47.316;18.908;2023-05-29T06:00:56;21.87;50.65
70708;SHT30;58277;47.316;18.908;2023-05-29T06:03:21;21.70;51.54
70708;SHT30;58277;47.316;18.908;2023-05-29T06:05:52;21.83;51.52
70708;SHT30;58277;47.316;18.908;2023-05-29T06:08:16;21.86;52.43
70708;SHT30;58277;47.316;18.908;2023-05-29T06:10:39;22.24;51.69
70708;SHT30;58277;47.316;18.908;2023-05-29T06:13:02;21.61;51.27
70708;SHT30;58277;47.316;18.908;2023-05-29T06:15:35;21.33;51.66
70708;SHT30;58277;47.316;18.908;2023-05-29T06:17:58;21.42;51.66
70708;SHT30;58277;47.316;18.908;2023-05-29T06:20:24;21.80;50.75
70708;SHT30;58277;47.316;18.908;2023-05-29T06:22:47;22.07;50.30
70708;SHT30;58277;47.316;18.908;2023-05-29T06:25:13;22.34;50.02
70708;SHT30;58277;47.316;18.908;2023-05-29T06:27:36;22.87;49.78
70708;SHT30;58277;47.316;18.908;2023-05-29T06:29:58;22.53;49.41
70708;SHT30;58277;47.316;18.908;2023-05-29T06:32:21;22.46;50.56
70708;SHT30;58277;47.316;18.908;2023-05-29T06:34:46;22.76;50.37
70708;SHT30;58277;47.316;18.908;2023-05-29T06:37:08;22.21;50.12
70708;SHT30;58277;47.316;18.908;2023-05-29T06:39:31;22.16;49.54
70708;SHT30;58277;47.316;18.908;2023-05-29T06:41:54;22.35;50.50
70708;SHT30;58277;47.316;18.908;2023-05-29T06:44:17;22.94;49.68
70708;SHT30;58277;47.316;18.908;2023-05-29T06:46:40;22.87;49.35
70708;SHT30;58277;47.316;18.908;2023-05-29T06:49:03;23.01;49.06
70708;SHT30;58277;47.316;18.908;2023-05-29T06:51:28;22.94;49.84
70708;SHT30;58277;47.316;18.908;2023-05-29T06:53:51;22.77;50.95
70708;SHT30;58277;47.316;18.908;2023-05-29T06:56:14;22.79;50.29
70708;SHT30;58277;47.316;18.908;2023-05-29T06:58:38;22.57;51.03
70708;SHT30;58277;47.316;18.908;2023-05-29T07:01:02;22.82;51.10
70708;SHT30;58277;47.316;18.908;2023-05-29T07:03:53;22.62;51.62
70708;SHT30;58277;47.316;18.908;2023-05-29T07:06:16;22.55;52.04
70708;SHT30;58277;47.316;18.908;2023-05-29T07:08:39;22.04;52.59
70708;SHT30;58277;47.316;18.908;2023-05-29T07:11:02;21.54;55.03
70708;SHT30;58277;47.316;18.908;2023-05-29T07:13:25;21.26;53.42
70708;SHT30;58277;47.316;18.908;2023-05-29T07:15:49;21.06;55.04
70708;SHT30;58277;47.316;18.908;2023-05-29T07:18:16;21.03;55.35
70708;SHT30;58277;47.316;18.908;2023-05-29T07:20:40;20.95;54.82
70708;SHT30;58277;47.316;18.908;2023-05-29T07:23:05;20.77;55.36
70708;SHT30;58277;47.316;18.908;2023-05-29T07:25:27;20.65;56.12
70708;SHT30;58277;47.316;18.908;2023-05-29T07:27:50;20.65;57.19
70708;SHT30;58277;47.316;18.908;2023-05-29T07:30:14;20.61;56.85
70708;SHT30;58277;47.316;18.908;2023-05-29T07:32:39;20.74;56.98
70708;SHT30;58277;47.316;18.908;2023-05-29T07:35:02;20.73;56.38
70708;SHT30;58277;47.316;18.908;2023-05-29T07:37:25;20.78;56.82
70708;SHT30;58277;47.316;18.908;2023-05-29T07:39:48;20.90;57.09
70708;SHT30;58277;47.316;18.908;2023-05-29T07:42:34;20.94;57.11
70708;SHT30;58277;47.316;18.908;2023-05-29T07:44:58;21.01;57.29
70708;SHT30;58277;47.316;18.908;2023-05-29T07:47:21;20.96;57.31
70708;SHT30;58277;47.316;18.908;2023-05-29T07:49:44;20.96;57.84
70708;SHT30;58277;47.316;18.908;2023-05-29T07:52:07;20.85;58.37
70708;SHT30;58277;47.316;18.908;2023-05-29T07:54:31;21.05;58.07
70708;SHT30;58277;47.316;18.908;2023-05-29T07:56:56;21.26;57.16
70708;SHT30;58277;47.316;18.908;2023-05-29T07:59:18;21.16;57.05
70708;SHT30;58277;47.316;18.908;2023-05-29T08:01:41;20.87;57.72
70708;SHT30;58277;47.316;18.908;2023-05-29T08:04:21;20.88;57.83
70708;SHT30;58277;47.316;18.908;2023-05-29T08:06:45;20.87;58.69
70708;SHT30;58277;47.316;18.908;2023-05-29T08:09:08;20.60;59.13
70708;SHT30;58277;47.316;18.908;2023-05-29T08:11:31;20.47;60.03
70708;SHT30;58277;47.316;18.908;2023-05-29T08:13:54;20.46;60.30
70708;SHT30;58277;47.316;18.908;2023-05-29T08:16:18;20.64;60.58
70708;SHT30;58277;47.316;18.908;2023-05-29T08:18:41;20.75;59.84
70708;SHT30;58277;47.316;18.908;2023-05-29T08:21:04;20.84;60.38
70708;SHT30;58277;47.316;18.908;2023-05-29T08:23:27;20.63;60.84
70708;SHT30;58277;47.316;18.908;2023-05-29T08:25:50;20.75;61.58
70708;SHT30;58277;47.316;18.908;2023-05-29T08:28:14;20.88;62.24
70708;SHT30;58277;47.316;18.908;2023-05-29T08:30:37;20.94;62.09
70708;SHT30;58277;47.316;18.908;2023-05-29T08:33:00;21.16;61.03
70708;SHT30;58277;47.316;18.908;2023-05-29T08:35:22;21.23;61.43
70708;SHT30;58277;47.316;18.908;2023-05-29T08:37:45;21.53;60.54
70708;SHT30;58277;47.316;18.908;2023-05-29T08:40:09;21.51;60.49
70708;SHT30;58277;47.316;18.908;2023-05-29T08:51:57;22.07;58.12
70708;SHT30;58277;47.316;18.908;2023-05-29T08:54:24;22.67;57.15
70708;SHT30;58277;47.316;18.908;2023-05-29T08:56:46;22.62;57.40
70708;SHT30;58277;47.316;18.908;2023-05-29T08:59:11;22.36;57.00
70708;SHT30;58277;47.316;18.908;2023-05-29T09:01:34;22.57;55.60
70708;SHT30;58277;47.316;18.908;2023-05-29T09:03:58;22.82;55.55
70708;SHT30;58277;47.316;18.908;2023-05-29T09:06:22;22.82;55.16
70708;SHT30;58277;47.316;18.908;2023-05-29T09:08:47;22.87;54.88
70708;SHT30;58277;47.316;18.908;2023-05-29T09:11:10;23.08;55.24
70708;SHT30;58277;47.316;18.908;2023-05-29T09:13:32;22.89;54.61
70708;SHT30;58277;47.316;18.908;2023-05-29T09:15:59;23.04;53.78
70708;SHT30;58277;47.316;18.908;2023-05-29T09:18:22;22.77;54.85
70708;SHT30;58277;47.316;18.908;2023-05-29T09:20:45;22.86;55.38
70708;SHT30;58277;47.316;18.908;2023-05-29T09:23:09;23.45;53.93
70708;SHT30;58277;47.316;18.908;2023-05-29T09:25:34;23.96;53.72
70708;SHT30;58277;47.316;18.908;2023-05-29T09:28:05;23.83;53.80
70708;SHT30;58277;47.316;18.908;2023-05-29T09:30:46;24.50;55.87
70708;SHT30;58277;47.316;18.908;2023-05-29T09:33:11;24.33;54.54
70708;SHT30;58277;47.316;18.908;2023-05-29T09:37:56;24.07;54.54
70708;SHT30;58277;47.316;18.908;2023-05-29T09:40:19;23.76;54.41
70708;SHT30;58277;47.316;18.908;2023-05-29T09:42:42;23.70;54.27
70708;SHT30;58277;47.316;18.908;2023-05-29T09:45:05;23.42;54.54
70708;SHT30;58277;47.316;18.908;2023-05-29T09:47:32;23.39;56.25
70708;SHT30;58277;47.316;18.908;2023-05-29T09:49:55;23.37;55.63
70708;SHT30;58277;47.316;18.908;2023-05-29T09:52:21;23.41;56.54
70708;SHT30;58277;47.316;18.908;2023-05-29T09:59:57;22.82;60.17
70708;SHT30;58277;47.316;18.908;2023-05-29T10:02:43;22.77;58.46
70708;SHT30;58277;47.316;18.908;2023-05-29T10:05:06;22.34;59.30
70708;SHT30;58277;47.316;18.908;2023-05-29T10:07:34;22.59;58.56
70708;SHT30;58277;47.316;18.908;2023-05-29T10:10:03;22.62;59.13
70708;SHT30;58277;47.316;18.908;2023-05-29T10:12:28;22.49;59.15
70708;SHT30;58277;47.316;18.908;2023-05-29T10:14:54;22.90;57.96
70708;SHT30;58277;47.316;18.908;2023-05-29T10:21:45;22.86;57.07
70708;SHT30;58277;47.316;18.908;2023-05-29T10:24:11;23.03;55.18
70708;SHT30;58277;47.316;18.908;2023-05-29T10:26:37;22.80;56.42
70708;SHT30;58277;47.316;18.908;2023-05-29T10:29:19;22.63;57.13
70708;SHT30;58277;47.316;18.908;2023-05-29T10:40:08;22.76;58.33
70708;SHT30;58277;47.316;18.908;2023-05-29T10:47:54;23.06;58.73
70708;SHT30;58277;47.316;18.908;2023-05-29T10:50:41;22.57;59.48
70708;SHT30;58277;47.316;18.908;2023-05-29T10:53:06;22.49;60.65
70708;SHT30;58277;47.316;18.908;2023-05-29T10:55:38;22.72;60.29
70708;SHT30;58277;47.316;18.908;2023-05-29T10:58:26;22.51;61.54
70708;SHT30;58277;47.316;18.908;2023-05-29T11:00:48;22.82;60.91
70708;SHT30;58277;47.316;18.908;2023-05-29T11:03:24;23.21;61.00
70708;SHT30;58277;47.316;18.908;2023-05-29T11:05:57;23.65;58.45
70708;SHT30;58277;47.316;18.908;2023-05-29T11:08:29;24.38;56.18
70708;SHT30;58277;47.316;18.908;2023-05-29T11:10:55;25.06;53.94
70708;SHT30;58277;47.316;18.908;2023-05-29T11:13:35;25.82;51.89
70708;SHT30;58277;47.316;18.908;2023-05-29T11:16:05;25.96;51.85
70708;SHT30;58277;47.316;18.908;2023-05-29T11:18:38;24.99;54.14
70708;SHT30;58277;47.316;18.908;2023-05-29T11:21:03;25.23;53.70
70708;SHT30;58277;47.316;18.908;2023-05-29T11:23:31;25.60;52.43
70708;SHT30;58277;47.316;18.908;2023-05-29T11:25:54;26.12;52.24
70708;SHT30;58277;47.316;18.908;2023-05-29T11:28:18;26.02;52.35
70708;SHT30;58277;47.316;18.908;2023-05-29T11:30:42;26.63;51.04
70708;SHT30;58277;47.316;18.908;2023-05-29T11:33:05;26.26;51.79
70708;SHT30;58277;47.316;18.908;2023-05-29T11:35:32;25.73;51.76
70708;SHT30;58277;47.316;18.908;2023-05-29T11:37:57;25.57;52.35
70708;SHT30;58277;47.316;18.908;2023-05-29T11:40:20;25.86;49.33
70708;SHT30;58277;47.316;18.908;2023-05-29T11:42:44;25.73;49.44
70708;SHT30;58277;47.316;18.908;2023-05-29T11:45:14;25.63;47.72
70708;SHT30;58277;47.316;18.908;2023-05-29T11:47:58;26.05;46.47
70708;SHT30;58277;47.316;18.908;2023-05-29T11:50:26;26.22;48.73
70708;SHT30;58277;47.316;18.908;2023-05-29T11:52:49;25.77;47.87
70708;SHT30;58277;47.316;18.908;2023-05-29T11:55:13;25.15;49.35
70708;SHT30;58277;47.316;18.908;2023-05-29T11:57:36;24.34;51.09
70708;SHT30;58277;47.316;18.908;2023-05-29T11:59:59;24.03;52.35
70708;SHT30;58277;47.316;18.908;2023-05-29T12:02:26;24.17;53.07
70708;SHT30;58277;47.316;18.908;2023-05-29T12:05:03;24.00;52.82
70708;SHT30;58277;47.316;18.908;2023-05-29T12:07:27;23.99;54.50
70708;SHT30;58277;47.316;18.908;2023-05-29T12:09:50;23.99;52.46
70708;SHT30;58277;47.316;18.908;2023-05-29T12:12:15;24.02;52.79
70708;SHT30;58277;47.316;18.908;2023-05-29T12:14:38;24.17;53.58
70708;SHT30;58277;47.316;18.908;2023-05-29T12:17:01;24.61;53.36
70708;SHT30;58277;47.316;18.908;2023-05-29T12:19:24;24.98;51.28
70708;SHT30;58277;47.316;18.908;2023-05-29T12:21:47;25.23;51.55
70708;SHT30;58277;47.316;18.908;2023-05-29T12:24:10;24.79;53.48
70708;SHT30;58277;47.316;18.908;2023-05-29T12:26:37;24.81;52.79
70708;SHT30;58277;47.316;18.908;2023-05-29T12:29:02;24.18;55.44
70708;SHT30;58277;47.316;18.908;2023-05-29T12:31:29;24.42;54.75
70708;SHT30;58277;47.316;18.908;2023-05-29T12:33:53;24.33;55.09
70708;SHT30;58277;47.316;18.908;2023-05-29T12:36:16;24.40;54.36
70708;SHT30;58277;47.316;18.908;2023-05-29T12:38:50;24.38;53.80
70708;SHT30;58277;47.316;18.908;2023-05-29T12:41:27;24.42;54.48
70708;SHT30;58277;47.316;18.908;2023-05-29T12:43:52;24.58;53.53
70708;SHT30;58277;47.316;18.908;2023-05-29T12:46:16;24.93;50.44
70708;SHT30;58277;47.316;18.908;2023-05-29T12:48:39;24.88;51.29
70708;SHT30;58277;47.316;18.908;2023-05-29T12:51:04;24.95;52.66
70708;SHT30;58277;47.316;18.908;2023-05-29T12:53:30;24.99;50.80
70708;SHT30;58277;47.316;18.908;2023-05-29T12:55:53;25.26;47.37
70708;SHT30;58277;47.316;18.908;2023-05-29T12:58:19;25.50;48.42
70708;SHT30;58277;47.316;18.908;2023-05-29T13:00:43;25.36;48.34
70708;SHT30;58277;47.316;18.908;2023-05-29T13:03:08;25.08;47.99
70708;SHT30;58277;47.316;18.908;2023-05-29T13:05:32;25.28;47.32
70708;SHT30;58277;47.316;18.908;2023-05-29T13:07:55;25.37;47.34
70708;SHT30;58277;47.316;18.908;2023-05-29T13:10:18;25.44;46.67
70708;SHT30;58277;47.316;18.908;2023-05-29T13:12:41;25.44;46.83
70708;SHT30;58277;47.316;18.908;2023-05-29T13:15:05;25.40;46.59
70708;SHT30;58277;47.316;18.908;2023-05-29T13:17:28;25.23;45.87
70708;SHT30;58277;47.316;18.908;2023-05-29T13:19:51;25.00;45.84
70708;SHT30;58277;47.316;18.908;2023-05-29T13:22:13;25.31;45.42
70708;SHT30;58277;47.316;18.908;2023-05-29T13:24:36;25.57;44.84
70708;SHT30;58277;47.316;18.908;2023-05-29T13:27:19;25.34;47.00
70708;SHT30;58277;47.316;18.908;2023-05-29T13:30:04;25.50;47.24
70708;SHT30;58277;47.316;18.908;2023-05-29T13:32:27;25.33;47.95
70708;SHT30;58277;47.316;18.908;2023-05-29T13:34:50;25.53;46.42
70708;SHT30;58277;47.316;18.908;2023-05-29T13:37:13;25.71;45.27
70708;SHT30;58277;47.316;18.908;2023-05-29T13:39:36;25.68;46.15
70708;SHT30;58277;47.316;18.908;2023-05-29T13:41:58;25.92;46.05
70708;SHT30;58277;47.316;18.908;2023-05-29T13:44:21;26.43;45.76
70708;SHT30;58277;47.316;18.908;2023-05-29T13:46:44;26.83;46.42
70708;SHT30;58277;47.316;18.908;2023-05-29T13:49:07;27.06;47.60
70708;SHT30;58277;47.316;18.908;2023-05-29T13:51:29;27.18;47.62
70708;SHT30;58277;47.316;18.908;2023-05-29T13:53:52;27.35;47.10
70708;SHT30;58277;47.316;18.908;2023-05-29T13:56:15;27.59;46.78
70708;SHT30;58277;47.316;18.908;2023-05-29T13:58:37;27.59;47.11
70708;SHT30;58277;47.316;18.908;2023-05-29T14:01:00;27.66;45.88
70708;SHT30;58277;47.316;18.908;2023-05-29T14:03:23;27.62;45.49
70708;SHT30;58277;47.316;18.908;2023-05-29T14:05:51;27.56;45.66
70708;SHT30;58277;47.316;18.908;2023-05-29T14:08:14;27.63;45.82
70708;SHT30;58277;47.316;18.908;2023-05-29T14:10:36;27.69;44.63
70708;SHT30;58277;47.316;18.908;2023-05-29T14:12:59;27.98;45.16
70708;SHT30;58277;47.316;18.908;2023-05-29T14:15:21;28.28;44.86
70708;SHT30;58277;47.316;18.908;2023-05-29T14:17:44;28.42;43.93
70708;SHT30;58277;47.316;18.908;2023-05-29T14:20:07;28.59;43.24
70708;SHT30;58277;47.316;18.908;2023-05-29T14:22:31;28.65;41.74
70708;SHT30;58277;47.316;18.908;2023-05-29T14:24:54;28.44;43.26
70708;SHT30;58277;47.316;18.908;2023-05-29T14:27:18;28.07;43.41
70708;SHT30;58277;47.316;18.908;2023-05-29T14:29:43;28.01;42.61
70708;SHT30;58277;47.316;18.908;2023-05-29T14:32:06;27.96;43.71
70708;SHT30;58277;47.316;18.908;2023-05-29T14:34:28;28.01;44.68
70708;SHT30;58277;47.316;18.908;2023-05-29T14:36:51;27.94;42.85
70708;SHT30;58277;47.316;18.908;2023-05-29T14:39:15;28.04;43.41
70708;SHT30;58277;47.316;18.908;2023-05-29T14:41:39;28.01;43.77
70708;SHT30;58277;47.316;18.908;2023-05-29T14:44:02;28.05;42.14
70708;SHT30;58277;47.316;18.908;2023-05-29T14:46:26;27.69;42.21
70708;SHT30;58277;47.316;18.908;2023-05-29T14:48:50;27.69;42.88
70708;SHT30;58277;47.316;18.908;2023-05-29T14:51:13;27.43;44.15
70708;SHT30;58277;47.316;18.908;2023-05-29T14:53:37;27.31;44.16
70708;SHT30;58277;47.316;18.908;2023-05-29T14:56:00;26.78;44.81
70708;SHT30;58277;47.316;18.908;2023-05-29T14:58:23;26.50;45.49
70708;SHT30;58277;47.316;18.908;2023-05-29T15:00:46;26.65;46.74
70708;SHT30;58277;47.316;18.908;2023-05-29T15:03:09;26.74;45.55
70708;SHT30;58277;47.316;18.908;2023-05-29T15:05:32;26.53;44.74
70708;SHT30;58277;47.316;18.908;2023-05-29T15:07:55;26.23;45.70
70708;SHT30;58277;47.316;18.908;2023-05-29T15:10:19;25.99;45.20
70708;SHT30;58277;47.316;18.908;2023-05-29T15:12:43;25.89;46.02
70708;SHT30;58277;47.316;18.908;2023-05-29T15:15:06;25.75;47.39
70708;SHT30;58277;47.316;18.908;2023-05-29T15:17:29;25.64;48.61
70708;SHT30;58277;47.316;18.908;2023-05-29T15:19:52;25.70;48.91
70708;SHT30;58277;47.316;18.908;2023-05-29T15:22:15;25.77;49.37
70708;SHT30;58277;47.316;18.908;2023-05-29T15:24:37;25.71;49.57
70708;SHT30;58277;47.316;18.908;2023-05-29T15:27:00;25.85;49.31
70708;SHT30;58277;47.316;18.908;2023-05-29T15:29:23;25.85;49.50
70708;SHT30;58277;47.316;18.908;2023-05-29T15:31:46;25.95;47.94
70708;SHT30;58277;47.316;18.908;2023-05-29T15:34:09;25.91;48.77
70708;SHT30;58277;47.316;18.908;2023-05-29T15:36:31;25.89;48.94
70708;SHT30;58277;47.316;18.908;2023-05-29T15:38:54;25.89;47.70
70708;SHT30;58277;47.316;18.908;2023-05-29T15:41:17;25.60;49.29